Time;durP1;ratioP1;P1;durP2;ratioP2;P2;SDS_P1;SDS_P2;PMS_P1;PMS_P2;Temp;Humidity;BMP_temperature;BMP_pressure;BME280_temperature;BME280_humidity;BME280_pressure;Samples;Min_cycle;Max_cycle;Signal;HPM_P1;HPM_P2
2023/10/09 00:02:22;;;;;;;18.50;8.20;;;;;;;;;;7396245;19;20006;-75
2023/10/09 00:04:51;;;;;;;14.63;6.70;;;;;;;;;;7373577;19;20009;-75
2023/10/09 00:07:16;;;;;;;15.40;7.03;;;;;;;;;;7376036;19;20102;-75
2023/10/09 00:09:51;;;;;;;14.63;6.20;;;;;;;;;;7375096;19;20007;-75
2023/10/09 00:12:22;;;;;;;13.63;5.97;;;;;;;;;;7373686;19;20514;-75
2023/10/09 00:14:48;;;;;;;;;;;;;;;;;;7375542;19;20006;-75
2023/10/09 00:17:17;;;;;;;13.45;6.50;;;;;;;;;;7397161;19;19986;-75
2023/10/09 00:19:47;;;;;;;11.77;6.18;;;;;;;;;;7374863;19;20029;-75
2023/10/09 00:22:46;;;;;;;15.07;6.07;;;;;;;;;;7372928;19;20014;-75
2023/10/09 00:25:11;;;;;;;11.55;5.95;;;;;;;;;;7373476;19;20823;-75
2023/10/09 00:27:51;;;;;;;14.18;6.80;;;;;;;;;;7374708;19;20783;-75
2023/10/09 00:30:29;;;;;;;12.17;6.47;;;;;;;;;;7376182;19;20007;-75
2023/10/09 00:33:01;;;;;;;13.15;6.55;;;;;;;;;;7372204;19;20294;-75
2023/10/09 00:35:36;;;;;;;14.65;6.25;;;;;;;;;;7396972;19;20006;-75
2023/10/09 00:38:14;;;;;;;13.90;5.88;;;;;;;;;;7374079;19;20007;-75
2023/10/09 00:40:46;;;;;;;17.20;6.53;;;;;;;;;;7372897;19;20006;-75
2023/10/09 00:43:13;;;;;;;13.52;6.50;;;;;;;;;;7372646;19;20014;-75
2023/10/09 00:45:40;;;;;;;13.38;6.63;;;;;;;;;;7375025;19;20045;-75
2023/10/09 00:48:08;;;;;;;14.48;6.68;;;;;;;;;;7375722;19;19999;-75
2023/10/09 00:50:35;;;;;;;14.70;7.45;;;;;;;;;;7395866;19;20016;-75
2023/10/09 00:53:11;;;;;;;13.45;6.22;;;;;;;;;;7371237;19;20047;-75
2023/10/09 00:55:44;;;;;;;12.55;6.25;;;;;;;;;;7373076;19;19999;-75
2023/10/09 00:58:12;;;;;;;14.75;6.50;;;;;;;;;;7374960;19;20007;-75
2023/10/09 01:06:15;;;;;;;14.88;7.22;;;;;;;;;;7395247;19;20609;-76
2023/10/09 01:11:09;;;;;;;12.77;6.38;;;;;;;;;;7394021;19;20366;-75
2023/10/09 01:13:41;;;;;;;11.57;6.25;;;;;;;;;;7374156;19;20003;-75
2023/10/09 01:16:15;;;;;;;14.68;6.50;;;;;;;;;;7375692;19;20467;-75
2023/10/09 01:18:43;;;;;;;13.32;6.28;;;;;;;;;;7373228;19;20007;-75
2023/10/09 01:21:13;;;;;;;14.20;6.28;;;;;;;;;;7373528;19;20002;-75
2023/10/09 01:26:26;;;;;;;11.32;5.78;;;;;;;;;;7373620;19;20679;-75
2023/10/09 01:28:57;;;;;;;13.43;6.05;;;;;;;;;;7373367;19;20006;-75
2023/10/09 01:31:25;;;;;;;10.75;6.18;;;;;;;;;;7372372;19;20006;-75
2023/10/09 01:33:53;;;;;;;13.55;6.22;;;;;;;;;;7370908;19;19999;-75
2023/10/09 01:36:18;;;;;;;14.35;6.30;;;;;;;;;;7371721;19;20425;-75
2023/10/09 01:38:44;;;;;;;12.15;6.25;;;;;;;;;;7392973;19;20128;-75
2023/10/09 01:41:19;;;;;;;14.98;6.63;;;;;;;;;;7370167;19;20026;-75
2023/10/09 01:43:45;;;;;;;9.95;5.75;;;;;;;;;;7368709;19;20367;-75
2023/10/09 01:46:16;;;;;;;15.70;6.07;;;;;;;;;;7371464;19;20010;-75
2023/10/09 01:48:46;;;;;;;14.65;6.50;;;;;;;;;;7372815;19;20531;-75
2023/10/09 01:51:18;;;;;;;16.27;6.72;;;;;;;;;;7376944;19;20027;-75
2023/10/09 01:53:44;;;;;;;16.05;6.90;;;;;;;;;;7393686;19;20002;-75
2023/10/09 01:56:16;;;;;;;15.10;8.15;;;;;;;;;;7379799;19;20006;-75
2023/10/09 01:58:43;;;;;;;15.43;7.32;;;;;;;;;;7392365;19;20038;-75
2023/10/09 02:01:09;;;;;;;14.13;6.20;;;;;;;;;;7390885;19;20010;-75
2023/10/09 02:03:37;;;;;;;14.30;6.20;;;;;;;;;;7373223;19;20017;-75
2023/10/09 02:06:04;;;;;;;15.38;6.78;;;;;;;;;;7372043;19;19994;-75
2023/10/09 02:08:30;;;;;;;15.57;6.47;;;;;;;;;;7393402;19;20009;-75
2023/10/09 02:10:56;;;;;;;11.55;5.50;;;;;;;;;;7370496;19;20011;-75
2023/10/09 02:13:29;;;;;;;15.02;6.03;;;;;;;;;;7369921;19;20480;-75
2023/10/09 02:15:58;;;;;;;14.25;6.47;;;;;;;;;;7369802;19;19999;-75
2023/10/09 02:18:36;;;;;;;12.70;6.20;;;;;;;;;;7371036;19;20002;-75
2023/10/09 02:23:50;;;;;;;13.30;6.18;;;;;;;;;;7390609;19;19998;-75
2023/10/09 02:26:24;;;;;;;11.85;6.10;;;;;;;;;;7371076;19;20044;-75
2023/10/09 02:28:58;;;;;;;13.90;6.50;;;;;;;;;;7370455;19;20062;-75
2023/10/09 02:31:26;;;;;;;11.43;5.85;;;;;;;;;;7370746;19;20660;-75
2023/10/09 02:33:55;;;;;;;12.05;5.63;;;;;;;;;;7367630;19;20057;-75
2023/10/09 02:36:24;;;;;;;14.68;5.90;;;;;;;;;;7372162;19;20014;-75
2023/10/09 02:38:52;;;;;;;11.55;5.90;;;;;;;;;;7371479;19;20003;-74
2023/10/09 02:41:20;;;;;;;11.85;5.90;;;;;;;;;;7390495;19;20010;-75
2023/10/09 02:43:47;;;;;;;16.48;6.95;;;;;;;;;;7368997;19;20023;-76
2023/10/09 02:46:29;;;;;;;14.05;6.20;;;;;;;;;;7370434;19;20006;-75
2023/10/09 02:48:57;;;;;;;17.23;7.88;;;;;;;;;;7370133;19;20006;-74
2023/10/09 02:53:57;;;;;;;11.77;7.20;;;;;;;;;;7367600;19;20030;-75
2023/10/09 02:56:43;;;;;;;13.43;7.43;;;;;;;;;;7399948;19;20475;-75
2023/10/09 02:59:09;;;;;;;13.75;6.80;;;;;;;;;;7386524;19;20251;-75
2023/10/09 03:01:37;;;;;;;14.63;7.70;;;;;;;;;;7387265;19;20059;-75
2023/10/09 03:04:03;;;;;;;13.05;6.90;;;;;;;;;;7373020;19;20010;-75
2023/10/09 03:06:31;;;;;;;12.00;6.43;;;;;;;;;;7371051;19;20058;-75
2023/10/09 03:08:59;;;;;;;11.63;6.05;;;;;;;;;;7369370;19;20520;-75
2023/10/09 03:11:26;;;;;;;11.93;5.65;;;;;;;;;;7391924;19;20010;-75
2023/10/09 03:13:52;;;;;;;13.52;6.05;;;;;;;;;;7369005;19;20052;-75
2023/10/09 03:16:21;;;;;;;12.52;6.10;;;;;;;;;;7371115;19;20027;-75
2023/10/09 03:18:52;;;;;;;14.52;6.07;;;;;;;;;;7369969;19;20036;-75
2023/10/09 03:21:20;;;;;;;11.00;6.95;;;;;;;;;;7370472;19;20014;-75
2023/10/09 03:23:50;;;;;;;14.48;6.95;;;;;;;;;;7378786;19;20014;-75
2023/10/09 03:26:19;;;;;;;12.75;6.93;;;;;;;;;;7391099;19;20382;-75
2023/10/09 03:28:47;;;;;;;15.27;6.97;;;;;;;;;;7369107;19;20002;-75
2023/10/09 03:31:13;;;;;;;16.38;7.28;;;;;;;;;;7369565;19;20837;-75
2023/10/09 03:33:39;;;;;;;13.38;6.70;;;;;;;;;;7366733;19;20002;-75
2023/10/09 03:36:11;;;;;;;11.98;7.35;;;;;;;;;;7369216;19;20010;-75
2023/10/09 03:38:38;;;;;;;17.52;7.85;;;;;;;;;;7390728;19;20035;-75
2023/10/09 03:41:06;;;;;;;19.38;7.57;;;;;;;;;;7368155;19;20027;-75
2023/10/09 03:43:41;;;;;;;16.75;7.75;;;;;;;;;;7369993;19;20400;-75
2023/10/09 03:46:20;;;;;;;17.23;8.30;;;;;;;;;;7375567;19;20010;-75
2023/10/09 03:48:46;;;;;;;15.80;8.68;;;;;;;;;;7374122;19;20025;-76
2023/10/09 03:51:13;;;;;;;17.27;9.00;;;;;;;;;;7370447;19;20017;-75
2023/10/09 03:53:39;;;;;;;14.93;8.57;;;;;;;;;;7387774;19;20597;-74
2023/10/09 03:56:17;;;;;;;16.10;8.82;;;;;;;;;;7368181;19;20030;-76
2023/10/09 03:58:48;;;;;;;18.92;8.80;;;;;;;;;;7368332;19;20372;-74
2023/10/09 04:01:28;;;;;;;;;;;;;;;;;;;;;
2023/10/09 04:03:59;;;;;;;14.60;9.02;;;;;;;;;;7365629;19;20389;-74
2023/10/09 04:06:32;;;;;;;16.52;9.43;;;;;;;;;;7368565;19;20022;-75
2023/10/09 04:08:58;;;;;;;15.82;9.25;;;;;;;;;;7367933;19;20007;-75
2023/10/09 04:11:24;;;;;;;20.23;10.23;;;;;;;;;;7388595;19;20031;-75
2023/10/09 04:13:52;;;;;;;17.60;9.40;;;;;;;;;;7366265;19;20006;-75
2023/10/09 04:16:33;;;;;;;19.10;9.98;;;;;;;;;;7367916;19;20007;-75
2023/10/09 04:19:05;;;;;;;22.45;10.18;;;;;;;;;;7368046;19;20470;-74
2023/10/09 04:21:37;;;;;;;21.52;10.52;;;;;;;;;;7368106;19;20019;-75
2023/10/09 04:24:22;;;;;;;18.55;10.20;;;;;;;;;;7366145;19;20003;-74
2023/10/09 04:26:55;;;;;;;17.85;9.07;;;;;;;;;;7367735;19;20007;-75
2023/10/09 04:29:27;;;;;;;21.73;9.68;;;;;;;;;;7388850;19;20378;-75
2023/10/09 04:31:55;;;;;;;20.45;8.95;;;;;;;;;;7362054;19;20947;-74
2023/10/09 04:34:22;;;;;;;20.55;9.00;;;;;;;;;;7365928;19;20022;-74
2023/10/09 04:37:00;;;;;;;19.55;9.32;;;;;;;;;;7366890;19;20014;-75
2023/10/09 04:44:59;;;;;;;23.50;11.32;;;;;;;;;;7396539;19;20005;-75
2023/10/09 04:47:35;;;;;;;20.40;10.80;;;;;;;;;;7374486;19;20009;-74
2023/10/09 04:57:45;;;;;;;21.52;10.75;;;;;;;;;;7374840;19;20039;-75
2023/10/09 05:02:56;;;;;;;;;;;;;;;;;;7371871;19;20014;-75
2023/10/09 05:08:22;;;;;;;;;;;;;;;;;;;;;
2023/10/09 05:11:15;;;;;;;21.48;10.10;;;;;;;;;;7372508;19;20013;-75
2023/10/09 05:16:26;;;;;;;20.38;10.13;;;;;;;;;;7372956;19;20491;-75
2023/10/09 05:18:56;;;;;;;18.70;9.73;;;;;;;;;;7370898;19;20003;-75
2023/10/09 05:21:44;;;;;;;19.33;10.20;;;;;;;;;;7372861;19;20019;-75
2023/10/09 05:29:19;;;;;;;20.70;10.02;;;;;;;;;;7371227;19;20010;-76
2023/10/09 05:35:07;;;;;;;18.90;10.60;;;;;;;;;;7371255;19;20011;-75
2023/10/09 05:37:32;;;;;;;14.98;9.45;;;;;;;;;;7371630;19;20051;-75
2023/10/09 05:47:37;;;;;;;20.63;9.80;;;;;;;;;;7391906;19;20481;-70
2023/10/09 05:55:20;;;;;;;15.40;9.60;;;;;;;;;;7371241;19;20560;-70
2023/10/09 06:16:42;;;;;;;16.40;8.73;;;;;;;;;;7372260;19;20010;-74
2023/10/09 06:19:25;;;;;;;14.18;8.20;;;;;;;;;;7370974;19;20480;-75
2023/10/09 06:27:43;;;;;;;20.58;7.72;;;;;;;;;;7371494;19;20070;-74
2023/10/09 06:30:23;;;;;;;17.93;8.17;;;;;;;;;;7370560;19;20117;-74
2023/10/09 06:35:23;;;;;;;16.83;8.02;;;;;;;;;;7391483;19;20256;-75
2023/10/09 06:43:17;;;;;;;;;;;;;;;;;;;;;
2023/10/09 06:45:45;;;;;;;;;;;;;;;;;;7370335;19;20632;-74
2023/10/09 06:51:07;;;;;;;12.15;6.30;;;;;;;;;;7368326;19;20041;-75
2023/10/09 06:59:21;;;;;;;;;;;;;;;;;;;;;
2023/10/09 07:01:50;;;;;;;13.27;5.72;;;;;;;;;;7367260;19;20050;-75
2023/10/09 07:04:19;;;;;;;17.42;7.28;;;;;;;;;;7376199;19;20003;-74
2023/10/09 07:15:01;;;;;;;12.55;7.00;;;;;;;;;;7368346;19;20007;-75
2023/10/09 07:17:26;;;;;;;15.93;7.25;;;;;;;;;;7368391;19;20014;-74
2023/10/09 07:24:56;;;;;;;19.38;7.38;;;;;;;;;;7368168;19;20007;-74
2023/10/09 07:38:14;;;;;;;21.25;11.20;;;;;;;;;;7372575;19;20038;-75
2023/10/09 07:40:56;;;;;;;21.83;6.93;;;;;;;;;;7376786;19;20023;-74
2023/10/09 07:43:35;;;;;;;23.20;7.50;;;;;;;;;;7376128;19;20022;-75
2023/10/09 07:48:48;;;;;;;19.52;7.07;;;;;;;;;;7373332;19;20935;-74
2023/10/09 07:51:14;;;;;;;20.83;7.40;;;;;;;;;;7370792;19;20507;-74
2023/10/09 07:53:49;;;;;;;19.85;6.90;;;;;;;;;;7386799;19;19999;-76
2023/10/09 07:56:20;;;;;;;17.02;6.45;;;;;;;;;;7368108;19;20011;-74
2023/10/09 07:58:46;;;;;;;14.27;6.50;;;;;;;;;;7368168;19;20717;-74
2023/10/09 08:03:45;;;;;;;11.55;5.63;;;;;;;;;;7364065;19;20002;-74
2023/10/09 08:16:46;;;;;;;17.98;5.88;;;;;;;;;;7374448;19;20106;-75
2023/10/09 08:19:32;;;;;;;16.83;5.88;;;;;;;;;;7373497;19;20508;-75
2023/10/09 08:24:43;;;;;;;25.05;6.72;;;;;;;;;;7373767;19;20013;-74
2023/10/09 08:27:46;;;;;;;12.50;6.25;;;;;;;;;;7374124;19;20018;-74
2023/10/09 08:33:00;;;;;;;17.40;6.93;;;;;;;;;;7392457;19;20018;-74
2023/10/09 08:35:33;;;;;;;15.77;5.68;;;;;;;;;;7373955;19;20002;-74
2023/10/09 08:38:07;;;;;;;13.73;5.65;;;;;;;;;;7373672;19;20002;-74
2023/10/09 08:40:42;;;;;;;14.77;5.63;;;;;;;;;;7371500;19;20011;-74
2023/10/09 08:43:18;;;;;;;15.40;6.18;;;;;;;;;;7371772;19;20003;-75
2023/10/09 08:45:53;;;;;;;13.85;6.07;;;;;;;;;;7373971;19;20019;-74
2023/10/09 08:48:18;;;;;;;18.90;6.05;;;;;;;;;;7372943;19;20019;-74
2023/10/09 08:50:45;;;;;;;11.98;5.18;;;;;;;;;;7393904;19;20015;-74
2023/10/09 08:53:12;;;;;;;11.10;5.18;;;;;;;;;;7369994;19;20010;-74
2023/10/09 08:55:38;;;;;;;16.02;5.70;;;;;;;;;;7372806;19;20022;-74
2023/10/09 08:58:24;;;;;;;14.35;5.55;;;;;;;;;;7372984;19;20010;-74
2023/10/09 09:00:50;;;;;;;13.75;5.40;;;;;;;;;;7371995;19;20010;-74
2023/10/09 09:03:17;;;;;;;18.40;5.38;;;;;;;;;;7372800;19;20060;-73
2023/10/09 09:05:51;;;;;;;15.82;6.18;;;;;;;;;;7398367;19;20009;-74
2023/10/09 09:08:25;;;;;;;17.50;5.95;;;;;;;;;;7375877;19;20006;-74
2023/10/09 09:11:11;;;;;;;12.77;5.07;;;;;;;;;;7372744;19;20007;-74
2023/10/09 09:14:05;;;;;;;12.43;5.55;;;;;;;;;;7371241;19;20007;-74
2023/10/09 09:16:33;;;;;;;10.80;5.90;;;;;;;;;;7371437;19;20102;-74
2023/10/09 09:19:04;;;;;;;17.63;5.75;;;;;;;;;;7372182;19;20007;-70
2023/10/09 09:21:37;;;;;;;12.32;5.15;;;;;;;;;;7371079;19;20002;-70
2023/10/09 09:24:06;;;;;;;12.93;6.22;;;;;;;;;;7371417;19;20002;-71
2023/10/09 09:26:37;;;;;;;14.23;5.63;;;;;;;;;;7392787;19;20003;-70
2023/10/09 09:29:05;;;;;;;14.43;5.72;;;;;;;;;;7371858;19;20010;-70
2023/10/09 09:31:37;;;;;;;13.90;6.13;;;;;;;;;;7371176;19;20030;-70
2023/10/09 09:34:04;;;;;;;11.82;5.30;;;;;;;;;;7368800;19;20559;-71
2023/10/09 09:36:34;;;;;;;16.55;5.97;;;;;;;;;;7374124;19;20014;-70
2023/10/09 09:39:01;;;;;;;12.77;5.80;;;;;;;;;;7373173;19;20791;-68
2023/10/09 09:41:26;;;;;;;16.75;6.03;;;;;;;;;;7398364;19;20551;-71
2023/10/09 09:44:04;;;;;;;21.08;6.07;;;;;;;;;;7385068;19;20026;-73
2023/10/09 09:46:33;;;;;;;16.02;6.90;;;;;;;;;;7389043;19;20009;-74
2023/10/09 09:49:12;;;;;;;14.70;6.28;;;;;;;;;;7380393;19;20002;-75
2023/10/09 09:51:37;;;;;;;12.70;6.00;;;;;;;;;;7372196;19;20527;-75
2023/10/09 09:54:07;;;;;;;16.52;6.25;;;;;;;;;;7376100;19;20003;-75
2023/10/09 09:56:38;;;;;;;22.65;6.20;;;;;;;;;;7397084;19;20302;-75
2023/10/09 09:59:06;;;;;;;16.27;5.97;;;;;;;;;;7372319;19;20494;-75
2023/10/09 10:01:36;;;;;;;19.50;6.43;;;;;;;;;;7368787;19;20006;-75
2023/10/09 10:04:12;;;;;;;15.77;5.88;;;;;;;;;;7368390;19;20018;-75
2023/10/09 10:06:40;;;;;;;16.98;6.43;;;;;;;;;;7370948;19;20048;-77
2023/10/09 10:09:07;;;;;;;18.45;6.80;;;;;;;;;;7371685;19;20012;-75
2023/10/09 10:11:51;;;;;;;13.30;5.47;;;;;;;;;;7392238;19;20681;-75
2023/10/09 10:14:31;;;;;;;18.60;5.68;;;;;;;;;;7371261;19;20006;-76
2023/10/09 10:16:59;;;;;;;9.38;5.82;;;;;;;;;;7370678;19;20767;-75
2023/10/09 10:19:25;;;;;;;15.23;7.07;;;;;;;;;;7370399;19;20017;-74
2023/10/09 10:21:52;;;;;;;14.18;6.38;;;;;;;;;;7367777;19;20543;-74
2023/10/09 10:25:09;;;;;;;15.48;6.80;;;;;;;;;;7358191;19;20090;-75
2023/10/09 10:27:44;;;;;;;15.45;6.15;;;;;;;;;;7369884;19;20014;-74
2023/10/09 10:30:13;;;;;;;13.80;5.85;;;;;;;;;;7370610;19;20021;-68
2023/10/09 10:32:56;;;;;;;15.32;6.10;;;;;;;;;;7388547;19;20025;-68
2023/10/09 10:35:45;;;;;;;16.67;6.28;;;;;;;;;;7368917;19;20019;-68
2023/10/09 10:38:49;;;;;;;12.80;5.90;;;;;;;;;;7367964;19;20006;-70
2023/10/09 10:41:22;;;;;;;17.70;5.82;;;;;;;;;;7367052;19;20021;-69
2023/10/09 10:46:15;;;;;;;17.67;6.47;;;;;;;;;;7368948;19;20002;-68
2023/10/09 10:48:46;;;;;;;14.23;6.13;;;;;;;;;;7368090;19;20010;-69
2023/10/09 10:51:14;;;;;;;12.50;6.18;;;;;;;;;;7368407;19;20031;-69
2023/10/09 10:53:52;;;;;;;12.15;5.70;;;;;;;;;;7389727;19;20539;-69
2023/10/09 10:56:18;;;;;;;;;;;;;;;;;;;;;
2023/10/09 11:02:13;;;;;;;11.60;5.35;;;;;;;;;;7368633;19;20020;-69
2023/10/09 11:04:43;;;;;;;16.10;5.90;;;;;;;;;;7368068;19;20483;-69
2023/10/09 11:28:56;;;;;;;11.45;4.70;;;;;;;;;;7365996;19;20044;-76
2023/10/09 11:31:22;;;;;;;12.48;4.60;;;;;;;;;;7372644;19;20397;-76
2023/10/09 11:33:52;;;;;;;11.45;4.97;;;;;;;;;;7384441;19;20046;-76
2023/10/09 11:36:32;;;;;;;11.00;4.82;;;;;;;;;;7383408;19;20010;-76
2023/10/09 11:42:07;;;;;;;12.05;4.68;;;;;;;;;;7366350;19;20009;-75
2023/10/09 11:44:45;;;;;;;9.73;4.47;;;;;;;;;;7390638;19;20373;-75
2023/10/09 11:50:30;;;;;;;13.45;4.68;;;;;;;;;;7363983;19;20057;-74
2023/10/09 11:53:08;;;;;;;12.88;4.75;;;;;;;;;;7368104;19;20010;-73
2023/10/09 11:55:37;;;;;;;8.57;4.30;;;;;;;;;;7371197;19;20014;-73
2023/10/09 11:58:04;;;;;;;9.80;4.50;;;;;;;;;;7371982;19;20003;-74
2023/10/09 12:00:41;;;;;;;11.45;4.90;;;;;;;;;;7371312;19;20039;-74
2023/10/09 12:03:06;;;;;;;8.90;4.57;;;;;;;;;;7370713;19;20446;-74
2023/10/09 12:05:33;;;;;;;11.05;4.78;;;;;;;;;;7391837;19;20023;-74
2023/10/09 12:08:01;;;;;;;12.05;4.68;;;;;;;;;;7374101;19;20037;-74
2023/10/09 12:10:26;;;;;;;10.15;4.40;;;;;;;;;;7372968;19;20003;-74
2023/10/09 12:12:52;;;;;;;10.35;4.43;;;;;;;;;;7369501;19;20012;-75
2023/10/09 12:15:19;;;;;;;33.20;25.08;;;;;;;;;;7373490;19;20078;-75
2023/10/09 12:17:46;;;;;;;11.45;4.80;;;;;;;;;;7393413;19;19998;-74
2023/10/09 12:20:30;;;;;;;9.50;4.20;;;;;;;;;;7372605;19;20014;-73
2023/10/09 12:22:59;;;;;;;8.77;4.55;;;;;;;;;;7369114;19;20013;-73
2023/10/09 12:25:25;;;;;;;7.67;4.67;;;;;;;;;;7373030;19;20096;-74
2023/10/09 12:27:54;;;;;;;11.48;4.90;;;;;;;;;;7373250;19;20504;-73
2023/10/09 12:30:26;;;;;;;11.43;4.97;;;;;;;;;;7374815;19;20002;-73
2023/10/09 12:32:57;;;;;;;12.88;4.45;;;;;;;;;;7372866;19;20447;-73
2023/10/09 12:35:25;;;;;;;10.02;4.65;;;;;;;;;;7395103;19;20006;-73
2023/10/09 12:37:54;;;;;;;10.93;4.35;;;;;;;;;;7373174;19;20102;-74
2023/10/09 12:40:29;;;;;;;9.15;4.28;;;;;;;;;;7376057;19;20322;-74
2023/10/09 12:42:55;;;;;;;10.65;5.10;;;;;;;;;;7371993;19;20010;-74
2023/10/09 12:45:27;;;;;;;11.68;4.65;;;;;;;;;;7375210;19;20421;-74
2023/10/09 12:47:58;;;;;;;9.70;4.63;;;;;;;;;;7371870;19;20049;-73
2023/10/09 12:50:27;;;;;;;9.88;4.82;;;;;;;;;;7394144;19;20018;-75
2023/10/09 12:53:01;;;;;;;9.10;4.82;;;;;;;;;;7368523;19;20013;-74
2023/10/09 12:55:31;;;;;;;11.98;4.68;;;;;;;;;;7372373;19;20002;-74
2023/10/09 12:58:00;;;;;;;9.23;4.45;;;;;;;;;;7365561;19;20010;-74
2023/10/09 13:00:26;;;;;;;10.38;4.70;;;;;;;;;;7369865;19;20026;-74
2023/10/09 13:02:51;;;;;;;9.70;4.75;;;;;;;;;;7365995;19;20246;-74
2023/10/09 13:05:26;;;;;;;12.55;4.82;;;;;;;;;;7391116;19;20095;-74
2023/10/09 13:07:56;;;;;;;9.02;4.60;;;;;;;;;;7371180;19;20548;-74
2023/10/09 13:10:23;;;;;;;10.45;4.70;;;;;;;;;;7372130;19;20026;-74
2023/10/09 13:12:55;;;;;;;9.32;4.50;;;;;;;;;;7367774;19;20030;-74
2023/10/09 13:15:20;;;;;;;12.75;5.25;;;;;;;;;;7373003;19;20073;-74
2023/10/09 13:17:46;;;;;;;10.88;5.20;;;;;;;;;;7382666;19;20002;-74
2023/10/09 13:20:14;;;;;;;10.77;4.82;;;;;;;;;;7384803;19;19994;-74
2023/10/09 13:22:41;;;;;;;16.40;5.45;;;;;;;;;;7368147;19;20055;-74
2023/10/09 13:25:15;;;;;;;9.82;4.80;;;;;;;;;;7370050;19;20014;-74
2023/10/09 13:27:42;;;;;;;11.15;4.80;;;;;;;;;;7371395;19;20036;-75
2023/10/09 13:30:21;;;;;;;54.28;37.75;;;;;;;;;;7372510;19;20014;-74
2023/10/09 13:32:49;;;;;;;45.00;28.05;;;;;;;;;;7377285;19;20001;-74
2023/10/09 13:35:16;;;;;;;12.88;5.80;;;;;;;;;;7395317;19;20369;-74
2023/10/09 13:37:41;;;;;;;10.10;5.05;;;;;;;;;;7391581;19;20007;-74
2023/10/09 13:40:09;;;;;;;9.35;5.38;;;;;;;;;;7396614;19;20014;-73
2023/10/09 13:42:35;;;;;;;10.70;4.93;;;;;;;;;;7378918;19;20006;-74
2023/10/09 13:45:04;;;;;;;9.68;4.70;;;;;;;;;;7371309;19;20757;-73
2023/10/09 13:47:32;;;;;;;10.57;4.53;;;;;;;;;;7392828;19;20011;-73
2023/10/09 13:49:57;;;;;;;9.15;4.63;;;;;;;;;;7371065;19;20010;-74
2023/10/09 13:52:23;;;;;;;9.75;4.95;;;;;;;;;;7369434;19;20006;-74
2023/10/09 13:54:49;;;;;;;13.18;4.90;;;;;;;;;;7367323;19;20037;-73
2023/10/09 13:57:15;;;;;;;12.40;4.68;;;;;;;;;;7371564;19;20020;-74
2023/10/09 13:59:51;;;;;;;10.18;4.95;;;;;;;;;;7393204;19;19995;-74
2023/10/09 14:02:17;;;;;;;11.60;4.80;;;;;;;;;;7368566;19;20007;-75
2023/10/09 14:04:43;;;;;;;10.48;5.10;;;;;;;;;;7366904;19;19995;-74
2023/10/09 14:07:09;;;;;;;9.45;4.75;;;;;;;;;;7370193;19;20006;-74
2023/10/09 14:12:10;;;;;;;12.27;5.10;;;;;;;;;;7364806;19;20390;-73
2023/10/09 14:14:49;;;;;;;10.57;5.38;;;;;;;;;;7388873;19;20007;-72
2023/10/09 14:17:28;;;;;;;12.30;4.72;;;;;;;;;;7368100;19;20007;-72
2023/10/09 14:19:55;;;;;;;15.35;6.10;;;;;;;;;;7366991;19;20038;-73
2023/10/09 14:22:26;;;;;;;12.90;4.60;;;;;;;;;;7368553;19;20022;-74
2023/10/09 14:24:57;;;;;;;9.40;4.70;;;;;;;;;;7366741;19;20007;-74
2023/10/09 14:27:25;;;;;;;12.27;5.13;;;;;;;;;;7368906;19;20647;-75
2023/10/09 14:29:51;;;;;;;12.10;5.15;;;;;;;;;;7370834;19;20003;-74
2023/10/09 14:32:17;;;;;;;10.73;5.13;;;;;;;;;;7388904;19;20010;-74
2023/10/09 14:34:47;;;;;;;11.35;4.75;;;;;;;;;;7366841;19;20002;-75
2023/10/09 14:37:14;;;;;;;11.13;4.87;;;;;;;;;;7369137;19;20010;-74
2023/10/09 14:39:41;;;;;;;10.85;4.57;;;;;;;;;;7369063;19;20360;-74
2023/10/09 14:42:09;;;;;;;9.32;4.93;;;;;;;;;;7368614;19;19996;-74
2023/10/09 14:44:40;;;;;;;14.40;5.20;;;;;;;;;;7388289;19;20003;-75
2023/10/09 14:47:06;;;;;;;11.32;4.95;;;;;;;;;;7368662;19;20010;-74
2023/10/09 14:49:38;;;;;;;11.02;4.70;;;;;;;;;;7366525;19;20015;-75
2023/10/09 14:52:08;;;;;;;17.88;5.53;;;;;;;;;;7366764;19;20086;-75
2023/10/09 14:54:33;;;;;;;16.10;5.55;;;;;;;;;;7366949;19;20054;-74
2023/10/09 14:56:59;;;;;;;14.93;6.00;;;;;;;;;;7368571;19;20010;-75
2023/10/09 14:59:25;;;;;;;16.63;5.45;;;;;;;;;;7389331;19;20002;-74
2023/10/09 15:01:53;;;;;;;17.30;5.68;;;;;;;;;;7365647;19;20923;-75
2023/10/09 15:04:19;;;;;;;18.90;5.90;;;;;;;;;;7361264;19;20474;-74
2023/10/09 15:06:47;;;;;;;16.30;7.53;;;;;;;;;;7364332;19;20007;-74
2023/10/09 15:09:22;;;;;;;22.50;7.57;;;;;;;;;;7367300;19;20446;-74
2023/10/09 15:11:48;;;;;;;15.57;5.63;;;;;;;;;;7363800;19;20006;-75
2023/10/09 15:14:15;;;;;;;14.30;5.32;;;;;;;;;;7382022;19;20007;-74
2023/10/09 15:16:42;;;;;;;16.48;5.53;;;;;;;;;;7364726;19;20007;-74
2023/10/09 15:19:10;;;;;;;14.38;5.93;;;;;;;;;;7365785;19;20030;-74
2023/10/09 15:21:43;;;;;;;18.88;5.32;;;;;;;;;;7367744;19;20093;-74
2023/10/09 15:24:16;;;;;;;18.00;5.75;;;;;;;;;;7368048;19;20032;-73
2023/10/09 15:26:42;;;;;;;13.63;5.15;;;;;;;;;;7391222;19;20362;-73
2023/10/09 15:29:09;;;;;;;13.75;5.70;;;;;;;;;;7379658;19;20007;-73
2023/10/09 15:31:35;;;;;;;16.42;5.70;;;;;;;;;;7380240;19;20010;-73
2023/10/09 15:34:08;;;;;;;13.02;5.40;;;;;;;;;;7381278;19;20098;-74
2023/10/09 15:36:34;;;;;;;9.77;5.22;;;;;;;;;;7367196;19;20089;-73
2023/10/09 15:38:59;;;;;;;12.82;5.22;;;;;;;;;;7367177;19;20029;-73
2023/10/09 15:41:29;;;;;;;12.50;5.65;;;;;;;;;;7390332;19;19995;-74
2023/10/09 15:43:56;;;;;;;20.80;11.43;;;;;;;;;;7366510;19;20025;-73
2023/10/09 15:46:22;;;;;;;30.40;17.13;;;;;;;;;;7367622;19;20066;-74
2023/10/09 15:48:50;;;;;;;32.25;19.85;;;;;;;;;;7367868;19;20039;-74
2023/10/09 15:51:16;;;;;;;22.02;9.13;;;;;;;;;;7366037;19;20002;-74
2023/10/09 15:53:45;;;;;;;17.45;8.45;;;;;;;;;;7384734;19;20696;-72
2023/10/09 15:56:12;;;;;;;15.85;7.57;;;;;;;;;;7367820;19;20518;-72
2023/10/09 15:58:42;;;;;;;15.85;6.95;;;;;;;;;;7368366;19;20002;-72
2023/10/09 16:01:12;;;;;;;14.75;6.82;;;;;;;;;;7368068;19;20353;-72
2023/10/09 16:03:40;;;;;;;14.52;6.45;;;;;;;;;;7358291;19;20410;-71
2023/10/09 16:06:08;;;;;;;14.38;7.30;;;;;;;;;;7367334;19;20577;-71
2023/10/09 16:08:36;;;;;;;17.13;7.00;;;;;;;;;;7372889;19;20876;-72
2023/10/09 16:11:02;;;;;;;13.25;6.40;;;;;;;;;;7356620;19;20022;-71
2023/10/09 16:13:27;;;;;;;12.45;5.55;;;;;;;;;;7361048;19;19999;-74
2023/10/09 16:15:56;;;;;;;14.70;6.40;;;;;;;;;;7364399;19;20036;-74
2023/10/09 16:18:21;;;;;;;12.02;6.35;;;;;;;;;;7361768;19;20006;-74
2023/10/09 16:20:47;;;;;;;15.82;6.47;;;;;;;;;;7365792;19;20010;-74
2023/10/09 16:23:12;;;;;;;12.40;5.93;;;;;;;;;;7383690;19;20003;-73
2023/10/09 16:25:38;;;;;;;14.40;6.07;;;;;;;;;;7364827;19;20006;-74
2023/10/09 16:28:04;;;;;;;14.38;6.15;;;;;;;;;;7365510;19;20408;-74
2023/10/09 16:30:30;;;;;;;15.85;6.45;;;;;;;;;;7365819;19;20003;-74
2023/10/09 16:32:56;;;;;;;14.65;6.25;;;;;;;;;;7363844;19;20019;-74
2023/10/09 16:35:22;;;;;;;12.85;6.00;;;;;;;;;;7388949;19;20006;-74
2023/10/09 16:37:49;;;;;;;13.15;5.70;;;;;;;;;;7373143;19;20107;-73
2023/10/09 16:40:15;;;;;;;13.98;5.82;;;;;;;;;;7371032;19;20009;-74
2023/10/09 16:42:42;;;;;;;11.27;5.65;;;;;;;;;;7372264;19;20041;-74
2023/10/09 16:45:17;;;;;;;16.30;6.22;;;;;;;;;;7374515;19;20033;-73
2023/10/09 16:47:46;;;;;;;11.43;5.57;;;;;;;;;;7397149;19;20010;-73
2023/10/09 16:50:15;;;;;;;13.27;5.75;;;;;;;;;;7372444;19;20031;-73
2023/10/09 16:52:40;;;;;;;11.00;5.32;;;;;;;;;;7369391;19;20007;-74
2023/10/09 16:55:08;;;;;;;11.82;5.35;;;;;;;;;;7370565;19;20023;-74
2023/10/09 16:57:41;;;;;;;18.02;7.93;;;;;;;;;;7372960;19;20006;-73
2023/10/09 17:00:18;;;;;;;13.82;7.22;;;;;;;;;;7372460;19;20676;-74
2023/10/09 17:02:45;;;;;;;11.40;4.85;;;;;;;;;;7391374;19;20022;-74
2023/10/09 17:05:12;;;;;;;12.02;5.32;;;;;;;;;;7370932;19;20335;-73
2023/10/09 17:07:39;;;;;;;14.32;5.40;;;;;;;;;;7372114;19;20098;-74
2023/10/09 17:10:14;;;;;;;12.52;5.07;;;;;;;;;;7371091;19;20006;-73
2023/10/09 17:12:43;;;;;;;11.07;4.55;;;;;;;;;;7367661;19;20018;-73
2023/10/09 17:15:14;;;;;;;10.65;4.85;;;;;;;;;;7371232;19;20031;-73
2023/10/09 17:17:45;;;;;;;12.13;4.43;;;;;;;;;;7392917;19;20712;-74
2023/10/09 17:20:11;;;;;;;12.75;4.93;;;;;;;;;;7370741;19;20406;-73
2023/10/09 17:22:37;;;;;;;9.15;4.50;;;;;;;;;;7367187;19;20073;-74
2023/10/09 17:25:03;;;;;;;9.88;4.10;;;;;;;;;;7370266;19;20010;-73
2023/10/09 17:27:29;;;;;;;9.75;4.43;;;;;;;;;;7370344;19;22882;-75
2023/10/09 17:29:57;;;;;;;8.75;4.57;;;;;;;;;;7372968;19;20062;-74
2023/10/09 17:32:23;;;;;;;10.85;4.55;;;;;;;;;;7391903;19;20019;-76
2023/10/09 17:34:49;;;;;;;10.93;4.13;;;;;;;;;;7371609;19;20018;-75
2023/10/09 17:37:14;;;;;;;9.30;4.45;;;;;;;;;;7367737;19;20003;-73
2023/10/09 17:39:40;;;;;;;9.38;4.22;;;;;;;;;;7372174;19;19998;-74
2023/10/09 17:42:08;;;;;;;10.20;4.97;;;;;;;;;;7370280;19;20119;-74
2023/10/09 17:44:34;;;;;;;10.07;4.50;;;;;;;;;;7390952;19;20209;-73
2023/10/09 17:47:00;;;;;;;11.85;4.82;;;;;;;;;;7365811;19;20110;-76
2023/10/09 17:49:25;;;;;;;12.98;4.80;;;;;;;;;;7367942;19;20554;-73
2023/10/09 17:51:51;;;;;;;15.90;6.00;;;;;;;;;;7368712;19;20077;-73
2023/10/09 17:54:17;;;;;;;10.50;4.68;;;;;;;;;;7365309;19;20014;-73
2023/10/09 17:56:44;;;;;;;12.18;4.90;;;;;;;;;;7392561;19;19998;-75